Time;durP1;ratioP1;P1;durP2;ratioP2;P2;SDS_P1;SDS_P2;PMS_P1;PMS_P2;Temp;Humidity;BMP_temperature;BMP_pressure;BME280_temperature;BME280_humidity;BME280_pressure;Samples;Min_cycle;Max_cycle;Signal;HPM_P1;HPM_P2
2022/05/27 00:01:56;;;;;;;1.23;0.60;;;24.60;42.30;;;;;;5137512;27;20105;-38
2022/05/27 00:04:23;;;;;;;1.10;0.50;;;24.60;42.40;;;;;;5119138;27;20027;-43
2022/05/27 00:06:49;;;;;;;1.13;0.57;;;24.60;42.40;;;;;;5137459;27;20015;-40
2022/05/27 00:09:15;;;;;;;2.15;0.60;;;24.60;42.40;;;;;;5137665;27;20030;-40
2022/05/27 00:11:42;;;;;;;1.60;0.70;;;24.60;42.40;;;;;;5138055;27;20038;-40
2022/05/27 00:14:09;;;;;;;1.77;0.60;;;24.60;42.40;;;;;;5137421;27;20457;-41
2022/05/27 00:16:35;;;;;;;1.88;0.63;;;24.60;42.40;;;;;;5137901;27;20019;-42
2022/05/27 00:19:01;;;;;;;1.60;0.60;;;24.60;42.50;;;;;;5138557;27;20099;-43
2022/05/27 00:21:27;;;;;;;1.50;0.70;;;24.60;42.50;;;;;;5139161;27;20461;-41
2022/05/27 00:23:54;;;;;;;1.25;0.70;;;24.50;42.40;;;;;;5137563;27;20027;-40
2022/05/27 00:26:20;;;;;;;1.33;0.70;;;24.60;42.40;;;;;;5138325;27;20516;-42
2022/05/27 00:28:47;;;;;;;1.65;0.68;;;24.60;42.40;;;;;;5137966;27;20018;-42
2022/05/27 00:31:18;;;;;;;1.77;0.63;;;24.60;42.50;;;;;;5138849;27;20023;-41
2022/05/27 00:33:43;;;;;;;1.17;0.60;;;24.60;42.50;;;;;;5137795;27;20015;-41
2022/05/27 00:36:10;;;;;;;1.73;0.60;;;24.60;42.50;;;;;;5137202;27;20393;-41
2022/05/27 00:38:36;;;;;;;1.50;0.70;;;24.60;42.50;;;;;;5137338;27;20095;-40
2022/05/27 00:41:02;;;;;;;3.22;0.93;;;24.60;42.50;;;;;;5135980;27;20030;-42
2022/05/27 00:43:29;;;;;;;1.30;0.60;;;24.60;42.50;;;;;;5137165;27;20053;-40
2022/05/27 00:46:01;;;;;;;1.45;0.70;;;24.50;42.50;;;;;;5136366;27;20496;-38
2022/05/27 00:48:26;;;;;;;1.60;0.75;;;24.50;42.50;;;;;;5137434;27;20030;-40
2022/05/27 00:50:53;;;;;;;1.45;0.55;;;24.50;42.50;;;;;;5135676;27;20094;-44
2022/05/27 00:53:23;;;;;;;1.38;0.60;;;24.60;42.60;;;;;;5135458;27;20003;-39
2022/05/27 00:55:52;;;;;;;1.10;0.60;;;24.50;42.50;;;;;;5118461;27;20064;-42
2022/05/27 00:58:24;;;;;;;1.40;0.60;;;24.60;42.60;;;;;;5118795;27;20102;-41
2022/05/27 01:00:50;;;;;;;3.58;0.70;;;24.50;42.60;;;;;;5135265;27;20012;-42
2022/05/27 01:03:16;;;;;;;2.13;0.70;;;24.50;42.60;;;;;;5136357;27;20493;-40
2022/05/27 01:05:42;;;;;;;1.83;0.88;;;24.50;42.60;;;;;;5117374;27;20393;-41
2022/05/27 01:08:08;;;;;;;2.15;0.73;;;24.50;42.60;;;;;;5117059;27;20530;-39
2022/05/27 01:11:16;;;;;;;1.55;0.60;;;24.50;42.60;;;;;;5135647;27;20056;-42
2022/05/27 01:13:51;;;;;;;1.00;0.50;;;24.50;42.60;;;;;;5107347;27;20031;-40
2022/05/27 01:16:41;;;;;;;1.42;0.80;;;24.50;42.60;;;;;;5135612;27;20042;-42
2022/05/27 01:22:34;;;;;;;1.33;0.70;;;24.50;42.70;;;;;;5139466;27;20068;-40
2022/05/27 01:25:21;;;;;;;2.03;0.70;;;24.50;42.70;;;;;;5136225;27;20076;-39
2022/05/27 01:28:18;;;;;;;1.55;0.68;;;24.50;42.70;;;;;;5137061;27;20011;-38
2022/05/27 01:30:46;;;;;;;1.67;0.70;;;24.50;42.70;;;;;;5136856;27;20042;-39
2022/05/27 01:33:19;;;;;;;2.28;0.80;;;24.40;42.70;;;;;;5134826;27;20366;-39
2022/05/27 01:35:55;;;;;;;1.42;0.70;;;24.40;42.70;;;;;;5134032;27;20023;-39
2022/05/27 01:38:27;;;;;;;2.47;0.70;;;24.50;42.80;;;;;;5134525;27;20023;-40
2022/05/27 01:41:14;;;;;;;1.58;0.80;;;24.50;42.80;;;;;;5134599;27;20015;-38
2022/05/27 01:43:43;;;;;;;1.00;0.65;;;24.40;42.80;;;;;;5135751;27;20023;-38
2022/05/27 01:46:38;;;;;;;1.90;0.80;;;24.50;42.80;;;;;;5135885;27;20022;-39
2022/05/27 01:49:22;;;;;;;2.22;0.70;;;24.40;42.80;;;;;;5118406;27;20023;-39
2022/05/27 01:51:54;;;;;;;2.25;0.70;;;24.50;42.90;;;;;;5136645;27;20099;-40
2022/05/27 01:54:37;;;;;;;2.92;0.82;;;24.40;42.80;;;;;;5134760;27;20015;-40
2022/05/27 01:57:30;;;;;;;0.93;0.60;;;24.40;42.90;;;;;;5136334;27;20016;-38
2022/05/27 02:00:10;;;;;;;1.40;0.70;;;24.40;42.90;;;;;;5125099;27;20035;-38
2022/05/27 02:02:38;;;;;;;2.63;0.95;;;24.40;42.90;;;;;;5117864;27;20023;-38
2022/05/27 02:05:08;;;;;;;1.05;0.57;;;24.40;42.90;;;;;;5138673;27;20098;-41
2022/05/27 02:07:40;;;;;;;1.83;0.70;;;24.40;42.90;;;;;;5140001;27;20034;-40
2022/05/27 02:10:10;;;;;;;1.85;0.90;;;24.40;42.90;;;;;;5141426;27;20011;-40
2022/05/27 02:12:47;;;;;;;3.20;0.70;;;24.40;43.00;;;;;;5139688;27;20026;-44
2022/05/27 02:15:17;;;;;;;1.92;0.68;;;24.40;42.90;;;;;;5140522;27;20023;-38
2022/05/27 02:18:10;;;;;;;1.88;0.80;;;24.40;43.50;;;;;;5141118;27;20014;-43
2022/05/27 02:20:40;;;;;;;2.70;0.73;;;24.40;43.00;;;;;;5140301;27;20019;-42
2022/05/27 02:23:11;;;;;;;1.67;0.60;;;24.40;43.00;;;;;;5121734;27;20019;-41
2022/05/27 02:25:39;;;;;;;2.35;0.80;;;24.40;43.00;;;;;;5139085;27;20015;-41
2022/05/27 02:28:12;;;;;;;2.13;0.80;;;24.40;43.00;;;;;;5138112;27;20043;-39
2022/05/27 02:30:42;;;;;;;1.42;0.85;;;24.40;43.10;;;;;;5138213;27;20022;-39
2022/05/27 02:36:01;;;;;;;3.00;0.93;;;24.40;43.10;;;;;;5119891;27;20102;-38
2022/05/27 02:38:27;;;;;;;1.70;0.60;;;24.40;43.10;;;;;;5134747;27;20583;-39
2022/05/27 02:41:01;;;;;;;1.88;0.85;;;24.40;43.20;;;;;;5117621;27;20011;-40
2022/05/27 02:43:41;;;;;;;2.35;1.00;;;24.40;43.70;;;;;;5134281;27;20027;-40
2022/05/27 02:46:33;;;;;;;1.50;0.60;;;24.40;43.20;;;;;;5134302;28;20049;-38
2022/05/27 02:49:22;;;;;;;3.00;0.90;;;24.40;43.20;;;;;;5135886;28;20023;-39
2022/05/27 02:52:00;;;;;;;2.72;0.90;;;24.40;43.30;;;;;;5134517;28;20022;-40
2022/05/27 02:54:35;;;;;;;2.28;0.90;;;24.40;43.20;;;;;;5134741;28;20496;-39
2022/05/27 02:57:39;;;;;;;3.33;0.82;;;24.40;43.30;;;;;;5138115;27;20011;-39
2022/05/27 03:00:07;;;;;;;2.42;0.80;;;24.30;43.20;;;;;;5139693;27;20164;-38
2022/05/27 03:02:33;;;;;;;1.85;0.73;;;24.30;43.30;;;;;;5139777;27;20469;-39
2022/05/27 03:05:00;;;;;;;1.20;0.60;;;24.30;43.30;;;;;;5138602;27;20500;-39
2022/05/27 03:07:41;;;;;;;2.10;0.88;;;24.30;43.30;;;;;;5137599;27;20011;-39
2022/05/27 03:10:15;;;;;;;2.83;0.77;;;24.30;43.30;;;;;;5139100;27;20030;-39
2022/05/27 03:12:55;;;;;;;2.50;0.90;;;24.30;43.30;;;;;;5139131;27;20020;-38
2022/05/27 03:15:31;;;;;;;1.63;0.60;;;24.30;43.30;;;;;;5138210;27;20484;-39
2022/05/27 03:18:24;;;;;;;2.13;0.90;;;24.30;43.40;;;;;;5137194;27;20469;-38
2022/05/27 03:21:25;;;;;;;2.60;0.77;;;24.30;43.40;;;;;;5122599;27;20156;-40
2022/05/27 03:24:31;;;;;;;1.95;0.80;;;24.30;43.40;;;;;;5137695;27;20031;-38
2022/05/27 03:27:16;;;;;;;2.28;1.00;;;24.30;44.00;;;;;;5136919;27;20020;-39
2022/05/27 03:29:57;;;;;;;2.90;0.85;;;24.30;43.40;;;;;;5137853;27;20046;-40
2022/05/27 03:32:47;;;;;;;1.88;0.80;;;24.30;43.50;;;;;;5137112;27;20485;-41
2022/05/27 03:35:50;;;;;;;2.60;0.80;;;24.30;43.50;;;;;;5138218;27;20018;-41
2022/05/27 03:38:31;;;;;;;2.22;0.70;;;24.30;43.50;;;;;;5142000;27;20057;-40
2022/05/27 03:41:14;;;;;;;2.13;0.90;;;24.30;43.50;;;;;;5141993;27;20012;-40
2022/05/27 03:43:40;;;;;;;2.45;0.95;;;24.30;43.50;;;;;;5142971;27;20133;-42
2022/05/27 03:46:08;;;;;;;1.65;0.80;;;24.30;43.60;;;;;;5142898;27;20015;-47
2022/05/27 03:48:34;;;;;;;2.53;0.82;;;24.30;43.60;;;;;;5109774;27;20119;-40
2022/05/27 03:51:14;;;;;;;2.05;0.90;;;24.30;43.60;;;;;;5139090;27;20021;-42
2022/05/27 03:56:24;;;;;;;2.55;0.90;;;24.20;43.60;;;;;;5139798;27;20057;-39
2022/05/27 03:58:51;;;;;;;2.35;0.95;;;24.30;43.60;;;;;;5138642;27;20015;-40
2022/05/27 04:01:22;;;;;;;2.78;0.80;;;24.20;43.60;;;;;;5137931;27;20094;-41
2022/05/27 04:03:48;;;;;;;2.00;0.80;;;24.20;43.60;;;;;;5138328;27;20473;-39
2022/05/27 04:06:16;;;;;;;1.90;0.85;;;24.20;43.70;;;;;;5138273;27;20033;-43
2022/05/27 04:08:42;;;;;;;2.22;0.93;;;24.30;43.70;;;;;;5136895;27;20042;-40
2022/05/27 04:11:09;;;;;;;3.47;1.35;;;24.20;43.70;;;;;;5138465;27;20011;-41
2022/05/27 04:13:35;;;;;;;2.47;0.95;;;24.20;43.70;;;;;;5139203;27;20011;-43
2022/05/27 04:16:00;;;;;;;3.83;0.95;;;24.20;43.80;;;;;;5139646;27;20030;-40
2022/05/27 04:18:27;;;;;;;3.40;0.98;;;24.20;43.80;;;;;;5140119;27;20030;-40
2022/05/27 04:20:54;;;;;;;2.35;1.02;;;24.30;43.90;;;;;;5137324;27;20412;-41
2022/05/27 04:23:20;;;;;;;2.47;0.90;;;24.20;43.80;;;;;;5136702;27;20020;-40
2022/05/27 04:25:47;;;;;;;3.67;1.33;;;24.20;43.90;;;;;;5135923;27;20148;-39
2022/05/27 04:28:13;;;;;;;3.88;0.90;;;24.20;43.90;;;;;;5137025;27;20019;-38
2022/05/27 04:30:39;;;;;;;2.75;1.00;;;24.20;43.90;;;;;;5135209;27;20469;-40
2022/05/27 04:33:06;;;;;;;3.30;1.08;;;24.20;43.90;;;;;;5136463;27;20040;-38
2022/05/27 04:35:32;;;;;;;3.47;1.25;;;24.20;43.90;;;;;;5136678;27;20039;-38
2022/05/27 04:37:59;;;;;;;2.33;0.90;;;24.20;44.00;;;;;;5137349;27;20019;-39
2022/05/27 04:40:26;;;;;;;3.35;1.10;;;24.20;44.00;;;;;;5137299;27;20019;-39
2022/05/27 04:42:52;;;;;;;2.25;1.02;;;24.10;44.00;;;;;;5137319;27;20023;-38
2022/05/27 04:45:20;;;;;;;3.50;1.13;;;24.20;44.10;;;;;;5137061;27;20011;-38
2022/05/27 04:47:46;;;;;;;2.70;1.00;;;24.20;44.10;;;;;;5136628;27;20481;-38
2022/05/27 04:50:11;;;;;;;2.53;1.10;;;24.20;44.10;;;;;;5136622;27;20015;-38
2022/05/27 04:52:38;;;;;;;4.05;1.30;;;24.20;44.20;;;;;;5135691;27;20534;-38
2022/05/27 04:55:09;;;;;;;2.70;1.05;;;24.20;44.20;;;;;;5136947;27;20045;-39
2022/05/27 04:57:40;;;;;;;2.92;1.20;;;24.10;44.20;;;;;;5137729;27;20026;-39
2022/05/27 05:00:13;;;;;;;3.90;1.10;;;24.20;44.30;;;;;;5136758;27;20040;-39
2022/05/27 05:02:41;;;;;;;3.33;1.10;;;24.10;44.20;;;;;;5136533;27;20084;-37
2022/05/27 05:05:08;;;;;;;2.50;0.90;;;24.20;44.20;;;;;;5138061;27;20015;-39
2022/05/27 05:07:33;;;;;;;1.88;0.93;;;24.10;44.20;;;;;;5137985;27;20015;-39
2022/05/27 05:10:00;;;;;;;2.50;0.98;;;24.20;44.30;;;;;;5137941;27;20003;-38
2022/05/27 05:12:26;;;;;;;3.10;1.10;;;24.20;44.40;;;;;;5120772;27;20068;-38
2022/05/27 05:14:52;;;;;;;2.63;1.00;;;24.10;44.30;;;;;;5139451;27;20094;-39
2022/05/27 05:17:18;;;;;;;3.67;1.30;;;24.10;44.50;;;;;;5120870;27;20058;-38
2022/05/27 05:19:43;;;;;;;2.85;1.02;;;24.10;44.50;;;;;;5135670;27;20087;-38
2022/05/27 05:22:09;;;;;;;2.25;1.00;;;24.10;44.40;;;;;;5134337;27;20513;-38
2022/05/27 05:24:35;;;;;;;4.28;1.10;;;24.10;44.50;;;;;;5135919;27;20063;-38
2022/05/27 05:27:01;;;;;;;2.70;1.02;;;24.10;44.50;;;;;;5135186;27;20082;-38
2022/05/27 05:29:28;;;;;;;2.92;1.02;;;24.10;44.50;;;;;;5134592;27;20058;-37
2022/05/27 05:31:54;;;;;;;3.17;1.13;;;24.10;44.50;;;;;;5134862;27;20023;-38
2022/05/27 05:34:21;;;;;;;2.60;1.15;;;24.10;44.50;;;;;;5137756;27;20015;-38
2022/05/27 05:36:47;;;;;;;2.97;1.20;;;24.10;44.50;;;;;;5139226;27;20022;-39
2022/05/27 05:39:14;;;;;;;2.65;1.10;;;24.10;44.60;;;;;;5139118;27;20098;-40
2022/05/27 05:41:40;;;;;;;2.78;1.20;;;24.20;45.10;;;;;;5119512;27;20092;-37
2022/05/27 05:44:07;;;;;;;3.90;1.30;;;24.20;44.60;;;;;;5134591;27;20023;-38
2022/05/27 05:46:35;;;;;;;4.75;1.30;;;24.10;44.50;;;;;;5136509;27;20099;-37
2022/05/27 05:49:00;;;;;;;3.15;1.10;;;24.20;44.70;;;;;;5135439;27;20095;-38
2022/05/27 05:51:27;;;;;;;1.45;0.80;;;24.20;44.60;;;;;;5135763;27;20068;-38
2022/05/27 05:53:54;;;;;;;3.80;1.27;;;24.20;44.60;;;;;;5135930;27;20019;-39
2022/05/27 05:56:20;;;;;;;4.43;1.20;;;24.30;44.50;;;;;;5134890;27;20023;-38
2022/05/27 05:58:48;;;;;;;2.85;1.10;;;24.30;44.30;;;;;;5135257;27;20078;-38
2022/05/27 06:01:14;;;;;;;2.55;1.00;;;24.30;44.20;;;;;;5135090;27;20015;-38
2022/05/27 06:03:40;;;;;;;2.40;1.05;;;24.40;44.20;;;;;;5135027;27;20474;-38
2022/05/27 06:06:06;;;;;;;3.47;1.33;;;24.40;44.00;;;;;;5135728;27;20020;-38
2022/05/27 06:08:33;;;;;;;3.30;1.20;;;24.50;44.00;;;;;;5133985;27;20035;-38
2022/05/27 06:10:58;;;;;;;2.85;1.00;;;24.50;43.90;;;;;;5135538;27;20764;-38
2022/05/27 06:13:26;;;;;;;2.50;1.02;;;24.50;43.80;;;;;;5135507;27;20054;-39
2022/05/27 06:15:52;;;;;;;3.70;1.17;;;24.60;43.80;;;;;;5135001;27;20047;-38
2022/05/27 06:18:18;;;;;;;3.45;1.17;;;24.60;43.80;;;;;;5133727;27;20030;-38
2022/05/27 06:20:44;;;;;;;2.58;1.00;;;24.70;43.80;;;;;;5135910;27;20408;-38
2022/05/27 06:23:09;;;;;;;2.00;1.15;;;24.80;43.50;;;;;;5136128;27;20393;-38
2022/05/27 06:25:37;;;;;;;2.60;1.45;;;24.90;43.30;;;;;;5136403;27;20492;-38
2022/05/27 06:36:16;;;;;;;3.28;1.30;;;25.10;43.00;;;;;;5134307;27;20049;-38
2022/05/27 06:38:41;;;;;;;2.70;1.10;;;25.10;42.90;;;;;;5134243;27;20015;-38
2022/05/27 06:41:07;;;;;;;4.25;1.30;;;25.00;42.90;;;;;;5134993;27;20090;-38
2022/05/27 06:43:34;;;;;;;3.33;1.23;;;25.10;42.70;;;;;;5134381;27;20076;-38
2022/05/27 06:46:00;;;;;;;2.95;1.25;;;25.20;42.70;;;;;;5135891;28;20016;-40
2022/05/27 06:48:27;;;;;;;3.45;1.20;;;25.20;42.70;;;;;;5135827;28;20035;-39
2022/05/27 06:50:54;;;;;;;3.53;1.30;;;25.30;42.60;;;;;;5139227;27;20022;-41
2022/05/27 06:53:20;;;;;;;3.80;1.42;;;25.20;42.50;;;;;;5138914;28;20022;-41
2022/05/27 06:55:50;;;;;;;4.03;1.30;;;25.30;42.80;;;;;;5137091;28;20024;-40
2022/05/27 06:58:19;;;;;;;2.63;1.27;;;25.40;42.60;;;;;;5138447;27;20032;-41
2022/05/27 07:00:46;;;;;;;2.83;1.20;;;25.50;42.50;;;;;;5138041;28;20027;-40
2022/05/27 07:03:12;;;;;;;3.33;1.20;;;25.60;42.00;;;;;;5137671;28;20020;-40
2022/05/27 07:05:38;;;;;;;2.85;1.20;;;25.80;42.00;;;;;;5138821;28;20023;-44
2022/05/27 07:08:05;;;;;;;3.17;1.27;;;26.00;41.60;;;;;;5138656;27;20457;-43
2022/05/27 07:10:30;;;;;;;4.53;1.83;;;26.10;41.20;;;;;;5138787;27;20041;-41
2022/05/27 07:12:59;;;;;;;3.42;1.33;;;26.20;41.20;;;;;;5137741;28;20020;-43
2022/05/27 07:15:25;;;;;;;3.15;1.10;;;26.20;41.00;;;;;;5137588;28;20366;-41
2022/05/27 07:17:52;;;;;;;3.65;1.20;;;26.20;41.10;;;;;;5136649;28;20012;-40
2022/05/27 07:20:18;;;;;;;2.65;1.27;;;26.20;41.30;;;;;;5138511;27;20412;-43
2022/05/27 07:22:43;;;;;;;3.10;1.40;;;26.20;41.20;;;;;;5138976;28;20389;-43
2022/05/27 07:25:13;;;;;;;3.90;1.50;;;26.20;41.10;;;;;;5139804;27;20137;-44
2022/05/27 07:27:42;;;;;;;3.15;1.35;;;26.20;40.90;;;;;;5139977;27;20004;-42
2022/05/27 07:30:09;;;;;;;3.17;1.50;;;26.40;41.20;;;;;;5138053;28;20016;-40
2022/05/27 07:32:35;;;;;;;2.67;1.15;;;26.40;41.00;;;;;;5137042;27;20023;-40
2022/05/27 07:35:04;;;;;;;3.20;1.35;;;26.60;40.80;;;;;;5139289;27;20015;-46
2022/05/27 07:37:31;;;;;;;;;;;26.80;40.40;;;;;;5142168;27;20058;-42
2022/05/27 07:39:57;;;;;;;2.60;1.20;;;27.00;40.10;;;;;;5140635;28;19900;-40
2022/05/27 07:42:23;;;;;;;2.97;1.17;;;27.30;39.70;;;;;;5140760;27;20109;-43
2022/05/27 07:44:50;;;;;;;3.75;1.30;;;27.40;39.30;;;;;;5142871;27;20083;-44
2022/05/27 07:47:17;;;;;;;4.78;1.67;;;27.60;39.00;;;;;;5141567;27;20027;-43
2022/05/27 07:49:43;;;;;;;3.67;1.55;;;27.70;38.70;;;;;;5143747;27;20007;-39
2022/05/27 07:52:10;;;;;;;2.58;1.15;;;27.80;38.50;;;;;;5143289;27;20465;-39
2022/05/27 07:54:36;;;;;;;2.25;1.00;;;28.00;38.60;;;;;;5142012;27;20565;-42
2022/05/27 07:57:02;;;;;;;3.15;1.38;;;28.00;38.30;;;;;;5141265;27;20039;-41
2022/05/27 07:59:29;;;;;;;3.22;1.45;;;28.20;38.70;;;;;;5139581;27;20020;-40
2022/05/27 08:01:55;;;;;;;3.63;1.15;;;28.30;37.80;;;;;;5139583;27;20528;-40
2022/05/27 08:04:21;;;;;;;2.55;1.05;;;28.40;37.60;;;;;;5141198;27;20095;-39
2022/05/27 08:06:47;;;;;;;2.90;1.33;;;28.30;37.50;;;;;;5138775;27;20051;-43
2022/05/27 08:09:13;;;;;;;2.38;1.10;;;28.30;37.60;;;;;;5138488;27;20039;-41
2022/05/27 08:11:39;;;;;;;3.83;1.25;;;28.20;38.10;;;;;;5139669;27;20389;-40
2022/05/27 08:14:05;;;;;;;3.55;1.35;;;28.10;38.10;;;;;;5138877;27;20144;-40
2022/05/27 08:16:33;;;;;;;3.95;1.20;;;28.10;37.90;;;;;;5140321;27;20027;-40
2022/05/27 08:18:59;;;;;;;2.72;1.25;;;28.30;37.90;;;;;;5140427;27;20118;-40
2022/05/27 08:21:25;;;;;;;2.53;0.98;;;28.40;37.60;;;;;;5138746;27;20039;-39
2022/05/27 08:23:52;;;;;;;2.90;1.00;;;28.50;37.40;;;;;;5137622;27;20028;-39
2022/05/27 08:26:18;;;;;;;3.60;1.20;;;28.40;37.30;;;;;;5120746;27;20011;-39
2022/05/27 08:28:44;;;;;;;2.88;1.15;;;28.30;37.40;;;;;;5136989;27;20499;-38
2022/05/27 08:31:10;;;;;;;3.05;1.10;;;28.10;37.60;;;;;;5136329;27;20023;-39
2022/05/27 08:39:09;;;;;;;3.30;1.20;;;27.70;38.50;;;;;;5136332;27;20500;-38
2022/05/27 08:42:10;;;;;;;2.20;1.08;;;27.60;38.50;;;;;;5136971;27;20513;-39
2022/05/27 08:44:48;;;;;;;3.60;1.27;;;27.50;38.70;;;;;;5132765;27;20035;-39
2022/05/27 08:47:28;;;;;;;2.08;0.88;;;27.40;38.90;;;;;;5137296;27;20023;-39
2022/05/27 08:50:29;;;;;;;2.55;1.00;;;27.40;39.10;;;;;;5139601;27;20040;-39
2022/05/27 08:53:16;;;;;;;2.35;0.98;;;27.40;38.90;;;;;;5110693;27;20088;-39
2022/05/27 09:01:31;;;;;;;2.20;0.98;;;27.80;38.30;;;;;;5141775;27;20507;-40
2022/05/27 09:04:02;;;;;;;2.53;1.02;;;27.70;38.30;;;;;;5141591;27;20027;-39
2022/05/27 09:06:57;;;;;;;1.92;0.88;;;27.60;38.10;;;;;;5138246;27;20082;-39
2022/05/27 09:09:24;;;;;;;2.97;1.30;;;27.60;38.40;;;;;;5101262;27;20029;-39
2022/05/27 09:11:59;;;;;;;1.83;0.90;;;27.60;38.60;;;;;;5138379;27;20013;-40
2022/05/27 09:14:24;;;;;;;2.40;0.90;;;27.60;38.70;;;;;;5138136;27;20019;-41
2022/05/27 09:16:54;;;;;;;2.05;0.90;;;27.60;38.40;;;;;;5137134;27;20075;-39
2022/05/27 09:19:56;;;;;;;2.50;1.00;;;27.80;38.30;;;;;;5137759;27;20023;-39
2022/05/27 09:23:00;;;;;;;1.55;0.88;;;27.80;38.00;;;;;;5140545;27;20065;-42
2022/05/27 09:25:40;;;;;;;2.67;1.00;;;27.80;37.90;;;;;;5142549;27;20023;-41
2022/05/27 09:28:27;;;;;;;1.98;1.00;;;27.70;37.90;;;;;;5124489;27;20007;-40
2022/05/27 09:30:54;;;;;;;4.65;1.52;;;27.70;38.20;;;;;;5142335;27;20038;-43
2022/05/27 09:33:21;;;;;;;2.28;1.10;;;27.70;38.20;;;;;;5143104;27;20064;-43
2022/05/27 09:36:12;;;;;;;1.50;0.85;;;27.80;38.00;;;;;;5145358;27;20037;-43
2022/05/27 09:38:55;;;;;;;1.73;0.82;;;27.90;37.80;;;;;;5136916;27;20075;-38
2022/05/27 09:41:26;;;;;;;2.97;1.10;;;27.90;37.90;;;;;;5144945;27;20004;-39
2022/05/27 09:44:21;;;;;;;2.47;1.05;;;27.90;37.60;;;;;;5144698;27;20023;-42
2022/05/27 09:46:47;;;;;;;2.80;0.95;;;28.00;37.60;;;;;;5146174;27;20007;-42
2022/05/27 09:49:14;;;;;;;1.58;0.90;;;27.90;37.30;;;;;;5126453;27;20019;-43
2022/05/27 09:51:40;;;;;;;2.00;1.00;;;27.90;37.70;;;;;;5141393;27;20480;-40
2022/05/27 09:54:24;;;;;;;2.22;1.00;;;28.00;37.50;;;;;;5140589;27;20065;-43
2022/05/27 09:57:02;;;;;;;2.35;0.98;;;28.10;37.20;;;;;;5142809;27;20106;-42
2022/05/27 09:59:45;;;;;;;2.45;0.80;;;28.10;37.00;;;;;;5143439;27;20003;-43
2022/05/27 10:02:33;;;;;;;3.03;1.05;;;28.10;37.00;;;;;;5142460;27;20019;-39
2022/05/27 10:05:07;;;;;;;1.48;0.88;;;28.10;36.90;;;;;;5141813;27;20019;-41
2022/05/27 10:07:38;;;;;;;1.95;0.80;;;27.90;36.90;;;;;;5140143;27;20086;-42
2022/05/27 10:10:30;;;;;;;2.38;0.93;;;28.00;37.20;;;;;;5140146;27;20086;-41
2022/05/27 10:12:57;;;;;;;1.60;1.00;;;28.00;37.00;;;;;;5139963;27;20008;-39
2022/05/27 10:15:28;;;;;;;2.55;0.80;;;28.00;36.90;;;;;;5122140;27;20011;-41
2022/05/27 10:17:54;;;;;;;4.55;1.10;;;28.00;36.80;;;;;;5141356;27;20015;-40
2022/05/27 10:20:29;;;;;;;2.20;1.00;;;28.00;37.10;;;;;;5121478;28;20022;-40
2022/05/27 10:23:06;;;;;;;2.45;1.00;;;27.80;36.90;;;;;;5122109;27;20035;-40
2022/05/27 10:25:34;;;;;;;2.50;1.00;;;27.80;37.10;;;;;;5138377;27;20011;-40
2022/05/27 10:28:00;;;;;;;2.25;0.80;;;27.90;37.00;;;;;;5138389;27;20021;-41
2022/05/27 10:30:31;;;;;;;2.25;0.85;;;27.90;36.90;;;;;;5138838;27;20087;-39
2022/05/27 10:33:19;;;;;;;2.25;1.10;;;27.90;36.80;;;;;;5139267;27;20062;-41
2022/05/27 10:35:46;;;;;;;2.30;1.00;;;27.90;36.80;;;;;;5141165;27;20007;-40
2022/05/27 10:38:19;;;;;;;3.25;1.13;;;27.80;36.70;;;;;;5124859;27;20018;-41
2022/05/27 10:40:51;;;;;;;1.95;0.80;;;27.70;36.90;;;;;;5142119;27;20019;-39
2022/05/27 10:43:35;;;;;;;2.20;1.02;;;27.70;36.80;;;;;;5143727;27;20058;-37
2022/05/27 10:46:04;;;;;;;2.58;1.02;;;27.70;36.80;;;;;;5143449;27;20027;-42
2022/05/27 10:48:43;;;;;;;2.22;1.00;;;27.60;36.80;;;;;;5140320;28;20011;-39
2022/05/27 10:51:35;;;;;;;1.55;0.85;;;27.60;37.10;;;;;;5139798;27;20051;-39
2022/05/27 10:54:13;;;;;;;3.30;1.10;;;27.50;37.00;;;;;;5138491;28;20496;-39
2022/05/27 11:03:24;;;;;;;2.45;1.00;;;27.40;36.90;;;;;;5137170;28;20038;-39
2022/05/27 11:06:00;;;;;;;2.45;0.98;;;27.40;37.10;;;;;;5138041;28;20097;-39
2022/05/27 11:08:30;;;;;;;2.75;1.00;;;27.30;37.00;;;;;;5138076;27;20106;-39
2022/05/27 11:11:08;;;;;;;1.98;0.93;;;27.30;37.00;;;;;;5139403;27;20046;-42
2022/05/27 11:16:58;;;;;;;1.80;0.93;;;27.30;36.90;;;;;;5139027;27;20125;-40
2022/05/27 11:20:24;;;;;;;2.17;1.20;;;27.30;37.00;;;;;;5140351;27;20068;-39
2022/05/27 11:23:07;;;;;;;2.88;0.95;;;27.20;36.90;;;;;;5055401;28;20052;-39
2022/05/27 11:25:56;;;;;;;2.63;1.10;;;27.20;37.00;;;;;;5055176;28;20100;-39
2022/05/27 11:28:38;;;;;;;1.95;1.00;;;27.10;36.90;;;;;;5055377;28;20021;-39
2022/05/27 11:31:34;;;;;;;2.42;1.10;;;27.10;37.00;;;;;;5055526;28;20031;-39
2022/05/27 11:34:09;;;;;;;3.40;1.05;;;27.10;37.10;;;;;;5041108;28;20084;-41
2022/05/27 11:36:43;;;;;;;2.13;0.90;;;27.00;37.00;;;;;;5057723;28;20093;-41
2022/05/27 11:39:18;;;;;;;2.08;1.00;;;27.00;37.10;;;;;;5057868;28;20079;-39
2022/05/27 11:41:52;;;;;;;2.63;0.90;;;26.90;37.10;;;;;;5024483;28;20029;-39
2022/05/27 11:44:38;;;;;;;2.42;1.00;;;26.90;37.20;;;;;;5057191;28;20178;-39
2022/05/27 11:47:17;;;;;;;2.33;1.05;;;26.80;37.20;;;;;;5040706;28;20115;-39
2022/05/27 11:49:49;;;;;;;2.53;1.08;;;26.80;37.30;;;;;;5041519;28;20009;-39
2022/05/27 11:52:14;;;;;;;3.75;1.08;;;26.70;37.30;;;;;;5056420;28;20017;-38
2022/05/27 11:55:03;;;;;;;2.80;1.10;;;26.70;37.40;;;;;;5137113;27;20029;-39
2022/05/27 11:57:32;;;;;;;2.20;1.00;;;26.70;37.40;;;;;;5138383;27;20011;-39
2022/05/27 12:00:10;;;;;;;3.53;1.25;;;26.60;37.40;;;;;;5139278;27;20106;-40
2022/05/27 12:02:42;;;;;;;1.95;0.90;;;26.60;37.40;;;;;;5138874;27;20127;-40
2022/05/27 12:05:23;;;;;;;2.00;0.98;;;26.60;37.40;;;;;;5138935;27;20115;-41
2022/05/27 12:07:58;;;;;;;3.72;1.30;;;26.50;37.40;;;;;;5138063;27;20008;-39
2022/05/27 12:10:46;;;;;;;3.15;1.10;;;26.50;37.40;;;;;;5137686;27;20019;-39
2022/05/27 12:13:25;;;;;;;2.20;1.05;;;26.50;37.40;;;;;;5138545;27;20030;-39
2022/05/27 12:15:56;;;;;;;2.88;1.20;;;26.50;37.50;;;;;;5137110;27;20031;-38
2022/05/27 12:18:48;;;;;;;2.00;1.08;;;26.40;37.40;;;;;;5137837;27;20014;-40
2022/05/27 12:21:18;;;;;;;2.67;0.93;;;26.40;37.50;;;;;;5137976;27;20043;-39
2022/05/27 12:23:45;;;;;;;;;;;26.40;37.50;;;;;;5141261;27;20023;-36
2022/05/27 12:26:12;;;;;;;3.13;1.13;;;26.30;37.60;;;;;;5139781;27;20269;-43
2022/05/27 12:28:40;;;;;;;2.33;1.05;;;26.30;37.60;;;;;;5137866;27;20011;-39
2022/05/27 12:31:06;;;;;;;2.95;1.10;;;26.30;37.70;;;;;;5137347;27;20042;-39
2022/05/27 12:33:34;;;;;;;3.25;1.17;;;26.30;37.60;;;;;;5123411;27;20007;-39
2022/05/27 12:36:05;;;;;;;2.65;1.02;;;26.30;37.60;;;;;;5121965;27;20024;-39
2022/05/27 12:38:34;;;;;;;3.15;1.15;;;26.20;37.60;;;;;;5139774;27;20015;-40
2022/05/27 12:41:07;;;;;;;2.38;0.90;;;26.20;37.70;;;;;;5140404;27;20027;-41
2022/05/27 12:43:34;;;;;;;2.90;1.10;;;26.20;37.60;;;;;;5140324;27;20019;-41
2022/05/27 12:46:00;;;;;;;4.13;1.35;;;26.20;37.60;;;;;;5139358;27;20018;-39
2022/05/27 12:48:29;;;;;;;2.67;1.30;;;26.20;37.60;;;;;;5139198;27;20086;-40
2022/05/27 12:51:18;;;;;;;2.90;1.08;;;26.20;37.60;;;;;;5137323;27;20008;-40
2022/05/27 12:54:00;;;;;;;2.75;1.10;;;26.10;37.50;;;;;;5127120;27;20032;-39
2022/05/27 13:02:14;;;;;;;2.33;1.10;;;26.10;37.50;;;;;;5136295;27;20030;-39
2022/05/27 13:04:56;;;;;;;3.22;1.40;;;26.10;37.50;;;;;;5136171;27;20397;-39
2022/05/27 13:07:35;;;;;;;2.58;1.20;;;26.10;37.50;;;;;;5138366;27;20011;-39
2022/05/27 13:10:16;;;;;;;2.90;1.10;;;26.10;37.50;;;;;;5138960;27;20011;-39
2022/05/27 13:12:42;;;;;;;3.35;1.17;;;26.10;37.50;;;;;;5138352;27;20023;-39
2022/05/27 13:15:20;;;;;;;2.42;1.00;;;26.00;37.40;;;;;;5137976;27;20506;-40
2022/05/27 13:17:53;;;;;;;2.65;1.02;;;26.00;37.50;;;;;;5138937;27;20024;-39
2022/05/27 13:20:38;;;;;;;2.58;1.00;;;26.00;37.40;;;;;;5138537;27;20070;-40
2022/05/27 13:23:14;;;;;;;2.45;1.20;;;26.00;37.40;;;;;;5138597;27;20031;-39
2022/05/27 13:25:42;;;;;;;3.05;1.40;;;26.00;37.30;;;;;;5120774;27;20090;-41
2022/05/27 13:28:11;;;;;;;2.97;1.30;;;26.00;37.30;;;;;;5137100;27;20064;-39
2022/05/27 13:30:49;;;;;;;2.75;1.05;;;26.00;37.30;;;;;;5137755;27;20011;-39
2022/05/27 13:33:14;;;;;;;3.22;1.40;;;26.00;37.30;;;;;;5138137;27;20473;-39
2022/05/27 13:35:42;;;;;;;2.53;1.23;;;26.00;37.30;;;;;;5135830;27;20007;-39
2022/05/27 13:38:15;;;;;;;2.85;1.10;;;26.00;37.30;;;;;;5137596;27;20473;-40
2022/05/27 13:40:42;;;;;;;2.28;1.00;;;26.00;37.30;;;;;;5139106;27;20030;-39
2022/05/27 13:43:10;;;;;;;2.83;1.33;;;26.00;37.30;;;;;;5121526;27;20023;-39
2022/05/27 13:45:55;;;;;;;2.67;1.42;;;25.90;37.20;;;;;;5135279;27;20042;-39
2022/05/27 13:48:31;;;;;;;3.70;1.20;;;25.90;37.10;;;;;;5135171;27;20070;-39
2022/05/27 13:51:10;;;;;;;3.03;1.10;;;25.90;37.20;;;;;;5136077;27;20011;-39
2022/05/27 13:53:36;;;;;;;3.00;1.10;;;25.90;37.20;;;;;;5136253;27;20015;-39
2022/05/27 13:56:14;;;;;;;3.60;1.40;;;25.90;37.10;;;;;;5136258;27;20018;-40
2022/05/27 13:58:48;;;;;;;3.95;1.13;;;25.90;37.10;;;;;;5136405;27;20027;-39
2022/05/27 14:01:14;;;;;;;2.83;1.02;;;25.90;37.00;;;;;;5135825;27;20489;-40